Time;durP1;ratioP1;P1;durP2;ratioP2;P2;SDS_P1;SDS_P2;PMS_P1;PMS_P2;Temp;Humidity;BMP_temperature;BMP_pressure;BME280_temperature;BME280_humidity;BME280_pressure;Samples;Min_cycle;Max_cycle;Signal;HPM_P1;HPM_P2
2023/08/14 00:01:02;;;;;;;13.05;7.50;;;;;;;15.79;100.00;101428.38;5028645;28;20516;-64
2023/08/14 00:03:27;;;;;;;10.27;6.93;;;;;;;15.77;100.00;101438.81;5028477;28;20030;-65
2023/08/14 00:05:52;;;;;;;8.52;7.15;;;;;;;15.72;100.00;101437.84;5028905;28;20389;-64
2023/08/14 00:08:19;;;;;;;9.63;7.50;;;;;;;15.66;100.00;101441.19;5039340;28;20025;-65
2023/08/14 00:10:44;;;;;;;10.45;6.97;;;;;;;15.62;100.00;101428.91;5030780;28;20394;-64
2023/08/14 00:13:10;;;;;;;7.80;6.72;;;;;;;15.58;100.00;101437.53;5027896;28;20037;-64
2023/08/14 00:15:35;;;;;;;8.13;7.38;;;;;;;15.56;100.00;101437.50;5041333;28;20029;-64
2023/08/14 00:18:00;;;;;;;9.50;7.72;;;;;;;15.55;100.00;101446.19;5028353;28;20052;-65
2023/08/14 00:20:26;;;;;;;9.77;7.40;;;;;;;15.54;100.00;101427.88;5028641;28;20029;-64
2023/08/14 00:22:51;;;;;;;10.48;6.82;;;;;;;15.55;100.00;101429.63;5028382;28;20029;-65
2023/08/14 00:25:16;;;;;;;6.93;6.38;;;;;;;15.56;100.00;101426.19;5027709;28;20459;-64
2023/08/14 00:27:42;;;;;;;10.75;7.43;;;;;;;15.56;100.00;101421.81;5028395;28;20467;-64
2023/08/14 00:30:07;;;;;;;13.65;7.60;;;;;;;15.55;100.00;101419.19;5028209;28;20450;-64
2023/08/14 00:32:33;;;;;;;11.35;7.68;;;;;;;15.55;100.00;101414.84;5038020;28;20473;-64
2023/08/14 00:34:58;;;;;;;7.13;6.50;;;;;;;15.54;100.00;101413.06;5031434;28;20083;-64
2023/08/14 00:37:40;;;;;;;9.60;7.63;;;;;;;15.54;100.00;101417.44;5027922;28;20036;-64
2023/08/14 00:40:07;;;;;;;9.23;7.07;;;;;;;15.54;100.00;101423.53;5027863;28;20017;-64
2023/08/14 00:42:32;;;;;;;7.75;6.72;;;;;;;15.55;100.00;101422.69;5028432;28;20037;-64
2023/08/14 00:44:57;;;;;;;7.45;6.47;;;;;;;15.55;100.00;101414.84;5040813;28;20543;-64
2023/08/14 00:47:23;;;;;;;11.95;7.07;;;;;;;15.57;100.00;101421.00;5039377;28;20036;-65
2023/08/14 00:49:48;;;;;;;9.13;7.00;;;;;;;15.58;100.00;101417.53;5042714;28;20086;-64
2023/08/14 00:52:13;;;;;;;10.15;7.07;;;;;;;15.59;100.00;101410.56;5028040;28;20053;-64
2023/08/14 00:54:39;;;;;;;12.45;7.10;;;;;;;15.58;100.00;101420.13;5027644;28;20109;-64
2023/08/14 00:57:04;;;;;;;7.10;6.40;;;;;;;15.57;100.00;101420.09;5028033;28;20033;-64
2023/08/14 00:59:32;;;;;;;8.48;7.03;;;;;;;15.56;100.00;101411.38;5028396;28;20040;-64
2023/08/14 01:01:57;;;;;;;11.43;6.43;;;;;;;15.58;100.00;101414.91;5027951;28;20264;-64
2023/08/14 01:04:23;;;;;;;8.13;6.93;;;;;;;15.60;100.00;101410.59;5028045;28;20063;-65
2023/08/14 01:06:48;;;;;;;7.75;7.03;;;;;;;15.61;100.00;101404.50;5031843;28;20061;-64
2023/08/14 01:09:13;;;;;;;7.90;7.20;;;;;;;15.64;100.00;101401.09;5032142;28;20473;-64
2023/08/14 01:11:46;;;;;;;12.70;8.60;;;;;;;15.64;100.00;101397.59;5031298;28;20025;-65
2023/08/14 01:14:19;;;;;;;8.93;7.97;;;;;;;15.64;100.00;101392.38;5032218;28;20032;-64
2023/08/14 01:16:49;;;;;;;9.10;8.02;;;;;;;15.64;100.00;101400.22;5032235;28;20109;-64
2023/08/14 01:19:26;;;;;;;9.52;8.63;;;;;;;15.61;100.00;101393.22;5031660;28;20113;-64
2023/08/14 01:22:05;;;;;;;9.60;8.20;;;;;;;15.59;100.00;101393.19;5031924;28;20481;-64
2023/08/14 01:24:53;;;;;;;9.77;8.73;;;;;;;15.58;100.00;101396.63;5031392;28;20474;-64
2023/08/14 01:27:19;;;;;;;12.50;8.70;;;;;;;15.57;100.00;101394.00;5031426;28;20038;-64
2023/08/14 01:30:00;;;;;;;10.00;8.15;;;;;;;15.54;100.00;101392.19;5044855;28;20029;-64
2023/08/14 01:32:26;;;;;;;8.90;7.90;;;;;;;15.54;100.00;101380.88;5031393;28;20071;-65
2023/08/14 01:34:53;;;;;;;11.63;7.85;;;;;;;15.53;100.00;101381.72;5031506;28;20380;-64
2023/08/14 01:37:28;;;;;;;8.23;6.57;;;;;;;15.47;100.00;101383.34;5031234;28;20025;-65
2023/08/14 01:40:06;;;;;;;10.52;7.50;;;;;;;15.44;100.00;101385.91;5030959;28;20503;-64
2023/08/14 01:42:38;;;;;;;8.15;7.28;;;;;;;15.42;100.00;101381.50;5043827;28;20438;-64
2023/08/14 01:45:17;;;;;;;9.35;7.25;;;;;;;15.41;100.00;101374.53;5037350;28;20033;-64
2023/08/14 01:47:44;;;;;;;8.95;6.65;;;;;;;15.40;100.00;101375.38;5037498;28;20021;-65
2023/08/14 01:50:11;;;;;;;8.52;7.32;;;;;;;15.36;100.00;101366.59;5042776;28;20044;-64
2023/08/14 01:52:36;;;;;;;9.68;7.10;;;;;;;15.33;100.00;101363.91;5036927;28;20028;-64
2023/08/14 01:55:01;;;;;;;7.70;6.93;;;;;;;15.29;100.00;101365.56;5031311;28;20025;-64
2023/08/14 01:57:28;;;;;;;7.72;6.88;;;;;;;15.29;100.00;101357.75;5030602;28;20026;-64
2023/08/14 01:59:53;;;;;;;6.30;5.70;;;;;;;15.27;100.00;101367.28;5030941;28;20473;-65
2023/08/14 02:02:18;;;;;;;10.27;6.60;;;;;;;15.24;100.00;101355.03;5030558;28;20018;-64
2023/08/14 02:04:44;;;;;;;9.38;7.40;;;;;;;15.24;100.00;101356.75;5030989;28;20104;-64
2023/08/14 02:07:12;;;;;;;7.63;6.82;;;;;;;15.21;100.00;101351.50;5030793;28;20021;-64
2023/08/14 02:09:38;;;;;;;9.23;6.90;;;;;;;15.18;100.00;101354.03;5030415;28;20469;-64
2023/08/14 02:12:03;;;;;;;6.85;6.15;;;;;;;15.17;100.00;101347.03;5030606;28;20032;-64
2023/08/14 02:14:29;;;;;;;6.72;5.90;;;;;;;15.18;100.00;101341.84;5030869;28;20029;-64
2023/08/14 02:16:54;;;;;;;8.85;7.20;;;;;;;15.20;100.00;101340.16;5030781;28;20037;-64
2023/08/14 02:19:20;;;;;;;8.00;6.30;;;;;;;15.24;100.00;101343.72;5030397;28;20021;-64
2023/08/14 02:21:45;;;;;;;9.45;6.93;;;;;;;15.27;100.00;101345.53;5030284;28;20386;-64
2023/08/14 02:24:10;;;;;;;7.97;6.07;;;;;;;15.28;100.00;101342.03;5030693;28;20143;-64
2023/08/14 02:26:36;;;;;;;6.78;5.78;;;;;;;15.27;100.00;101330.75;5030144;28;20045;-64
2023/08/14 02:29:02;;;;;;;7.78;6.88;;;;;;;15.28;100.00;101337.72;5030428;28;20029;-64
2023/08/14 02:31:27;;;;;;;8.50;6.35;;;;;;;15.28;100.00;101337.72;5029947;28;20025;-64
2023/08/14 02:34:00;;;;;;;10.00;6.05;;;;;;;15.27;100.00;101333.34;5030647;28;20021;-64
2023/08/14 02:36:26;;;;;;;8.85;5.90;;;;;;;15.27;100.00;101325.53;5030696;28;20490;-64
2023/08/14 02:38:52;;;;;;;6.30;5.70;;;;;;;15.24;100.00;101322.81;5030432;28;20067;-64
2023/08/14 02:41:18;;;;;;;6.38;5.47;;;;;;;15.21;100.00;101322.78;5029422;28;20323;-64
2023/08/14 02:43:43;;;;;;;7.78;5.90;;;;;;;15.16;100.00;101316.59;5030719;28;20378;-64
2023/08/14 02:46:08;;;;;;;9.50;6.50;;;;;;;15.10;100.00;101328.66;5030693;28;20048;-64
2023/08/14 02:48:33;;;;;;;7.55;5.95;;;;;;;15.06;100.00;101324.22;5030312;28;20515;-64
2023/08/14 02:50:59;;;;;;;6.45;5.32;;;;;;;15.00;100.00;101326.72;5031204;28;20025;-64
2023/08/14 02:53:24;;;;;;;8.13;6.10;;;;;;;14.97;100.00;101324.00;5042441;28;20021;-64
2023/08/14 02:55:51;;;;;;;7.28;6.57;;;;;;;14.95;100.00;101325.72;5029903;28;20025;-64
2023/08/14 02:58:16;;;;;;;6.40;5.80;;;;;;;14.92;100.00;101328.25;5030119;28;20026;-64
2023/08/14 03:00:42;;;;;;;8.73;6.80;;;;;;;14.91;100.00;101326.50;5030028;28;20076;-64
2023/08/14 03:03:07;;;;;;;7.38;6.57;;;;;;;14.87;100.00;101323.84;5029975;28;20045;-64
2023/08/14 03:05:33;;;;;;;8.48;6.40;;;;;;;14.82;100.00;101330.66;5029874;28;20025;-65
2023/08/14 03:07:58;;;;;;;7.05;6.30;;;;;;;14.77;100.00;101329.63;5029445;28;20021;-64
2023/08/14 03:10:25;;;;;;;8.27;6.20;;;;;;;14.74;100.00;101319.13;5029509;28;20029;-64
2023/08/14 03:12:50;;;;;;;10.00;5.85;;;;;;;14.73;100.00;101328.69;5032978;28;20381;-64
2023/08/14 03:15:16;;;;;;;8.73;5.85;;;;;;;14.72;100.00;101324.31;5034734;28;20044;-64
2023/08/14 03:17:41;;;;;;;9.20;6.20;;;;;;;14.72;100.00;101320.84;5029839;28;20433;-64
2023/08/14 03:20:09;;;;;;;8.77;6.20;;;;;;;14.69;100.00;101321.66;5029641;28;20021;-64
2023/08/14 03:22:34;;;;;;;7.00;6.20;;;;;;;14.69;100.00;101320.78;5029739;28;20099;-64
2023/08/14 03:25:00;;;;;;;6.90;6.25;;;;;;;14.69;100.00;101324.28;5028717;28;20516;-64
2023/08/14 03:27:25;;;;;;;10.75;7.35;;;;;;;14.68;100.00;101319.88;5029058;28;20024;-64
2023/08/14 03:29:50;;;;;;;7.65;6.97;;;;;;;14.71;100.00;101326.91;5029365;28;20029;-64
2023/08/14 03:32:15;;;;;;;7.78;7.03;;;;;;;14.70;100.00;101323.41;5027240;28;20126;-64
2023/08/14 03:34:41;;;;;;;8.40;6.97;;;;;;;14.70;100.00;101326.03;5030280;28;20052;-64
2023/08/14 03:37:06;;;;;;;10.43;7.25;;;;;;;14.70;100.00;101318.19;5029448;28;20397;-64
2023/08/14 03:39:31;;;;;;;8.45;7.25;;;;;;;14.72;100.00;101315.63;5029098;28;20013;-64
2023/08/14 03:41:56;;;;;;;10.20;7.50;;;;;;;14.73;100.00;101326.06;5028985;28;20099;-64
2023/08/14 03:44:22;;;;;;;9.10;7.90;;;;;;;14.71;100.00;101324.31;5028534;28;20032;-64
2023/08/14 03:46:47;;;;;;;8.48;7.68;;;;;;;14.70;100.00;101325.13;5028824;28;20590;-64
2023/08/14 03:49:14;;;;;;;9.32;8.32;;;;;;;14.68;100.00;101330.31;5029217;28;20017;-64
2023/08/14 03:51:39;;;;;;;10.80;8.75;;;;;;;14.67;100.00;101317.25;5028866;28;20021;-64
2023/08/14 03:54:05;;;;;;;14.00;9.90;;;;;;;14.64;100.00;101324.16;5042024;28;20021;-64
2023/08/14 03:56:30;;;;;;;10.23;9.20;;;;;;;14.63;100.00;101330.22;5029266;28;20076;-64
2023/08/14 03:58:55;;;;;;;10.43;9.18;;;;;;;14.61;100.00;101324.09;5041877;28;20025;-64
2023/08/14 04:01:21;;;;;;;12.07;8.85;;;;;;;14.60;100.00;101322.34;5047632;28;20016;-64
2023/08/14 04:03:46;;;;;;;10.93;9.43;;;;;;;14.55;100.00;101310.91;5047582;28;20159;-64
2023/08/14 04:06:11;;;;;;;10.63;9.45;;;;;;;14.52;100.00;101313.44;5034501;28;20480;-64
2023/08/14 04:08:36;;;;;;;11.82;10.07;;;;;;;14.50;100.00;101315.13;5034084;28;20408;-64
2023/08/14 04:11:04;;;;;;;12.15;9.02;;;;;;;14.49;100.00;101315.97;5026405;28;20044;-64
2023/08/14 04:13:30;;;;;;;17.35;9.48;;;;;;;14.46;100.00;101314.19;5027025;28;20397;-64
2023/08/14 04:16:00;;;;;;;10.27;8.73;;;;;;;14.44;100.00;101312.38;5026248;28;20497;-64
2023/08/14 04:18:29;;;;;;;9.20;8.27;;;;;;;14.44;100.00;101307.16;5026727;28;20032;-64
2023/08/14 04:20:55;;;;;;;9.52;8.48;;;;;;;14.43;100.00;101303.66;5026999;28;20029;-64
2023/08/14 04:23:22;;;;;;;9.88;8.80;;;;;;;14.45;100.00;101302.00;5041125;28;20024;-64
2023/08/14 04:25:48;;;;;;;9.55;8.55;;;;;;;14.45;100.00;101301.09;5028464;28;20088;-65
2023/08/14 04:28:13;;;;;;;9.23;8.02;;;;;;;14.45;100.00;101290.66;5041234;28;20111;-64
2023/08/14 04:30:38;;;;;;;11.07;8.43;;;;;;;14.45;100.00;101295.88;5040216;28;20037;-64
2023/08/14 04:33:04;;;;;;;8.75;7.75;;;;;;;14.44;100.00;101295.03;5028199;28;20025;-64
2023/08/14 04:35:29;;;;;;;8.75;7.85;;;;;;;14.46;100.00;101297.66;5028121;28;20021;-64
2023/08/14 04:37:54;;;;;;;10.73;8.55;;;;;;;14.48;100.00;101286.41;5028493;28;20037;-64
2023/08/14 04:40:20;;;;;;;10.00;8.30;;;;;;;14.49;100.00;101287.28;5027377;28;20022;-64
2023/08/14 04:42:45;;;;;;;11.02;9.07;;;;;;;14.50;100.00;101283.81;5040896;28;20025;-64
2023/08/14 04:45:10;;;;;;;10.30;8.98;;;;;;;14.52;100.00;101288.25;5028401;28;20025;-64
2023/08/14 04:47:36;;;;;;;9.68;7.95;;;;;;;14.55;100.00;101282.25;5027638;28;20571;-64
2023/08/14 04:50:01;;;;;;;12.95;8.25;;;;;;;14.56;100.00;101289.19;5027916;28;20030;-64
2023/08/14 04:52:26;;;;;;;10.82;9.10;;;;;;;14.55;100.00;101282.25;5028266;28;20070;-64
2023/08/14 04:54:51;;;;;;;9.75;8.38;;;;;;;14.55;100.00;101283.94;5041025;28;20029;-64
2023/08/14 04:57:17;;;;;;;9.98;9.02;;;;;;;14.56;100.00;101283.97;5040884;28;20023;-64
2023/08/14 04:59:42;;;;;;;11.75;8.90;;;;;;;14.57;100.00;101275.28;5040822;28;20022;-64
2023/08/14 05:02:07;;;;;;;9.95;8.95;;;;;;;14.61;100.00;101265.81;5040977;28;20167;-65
2023/08/14 05:04:33;;;;;;;10.65;8.55;;;;;;;14.64;100.00;101264.16;5047748;28;20029;-64
2023/08/14 05:06:58;;;;;;;9.88;8.90;;;;;;;14.68;100.00;101266.84;5033279;28;20026;-64
2023/08/14 05:09:23;;;;;;;10.10;8.60;;;;;;;14.71;100.00;101267.81;5040274;28;20025;-64
2023/08/14 05:11:49;;;;;;;9.82;8.93;;;;;;;14.76;100.00;101268.78;5027297;28;20109;-64
2023/08/14 05:14:14;;;;;;;10.50;9.23;;;;;;;14.83;100.00;101267.22;5027408;28;20017;-64
2023/08/14 05:16:39;;;;;;;11.82;9.05;;;;;;;14.89;100.00;101264.72;5027165;28;20057;-64
2023/08/14 05:19:05;;;;;;;10.38;8.70;;;;;;;14.96;100.00;101251.81;5027478;28;20021;-64
2023/08/14 05:21:30;;;;;;;10.20;9.20;;;;;;;15.03;100.00;101266.75;5027236;28;20044;-64
2023/08/14 05:23:55;;;;;;;10.20;8.75;;;;;;;15.09;100.00;101269.47;5026825;28;20025;-64
2023/08/14 05:26:20;;;;;;;9.32;8.48;;;;;;;15.15;100.00;101258.28;5026971;28;20514;-65
2023/08/14 05:28:46;;;;;;;12.52;9.13;;;;;;;15.22;100.00;101261.88;5026752;28;20021;-64
2023/08/14 05:31:11;;;;;;;9.60;8.20;;;;;;;15.28;100.00;101268.94;5039106;28;20021;-64
2023/08/14 05:33:36;;;;;;;10.45;9.02;;;;;;;15.32;100.00;101261.22;5036922;28;20032;-65
2023/08/14 05:36:02;;;;;;;11.13;9.05;;;;;;;15.37;100.00;101274.34;5032808;28;20070;-65
2023/08/14 05:38:27;;;;;;;10.80;8.10;;;;;;;15.40;100.00;101274.41;5040522;28;20018;-64
2023/08/14 05:40:52;;;;;;;13.13;9.60;;;;;;;15.42;100.00;101277.03;5027264;28;20539;-65
2023/08/14 05:43:17;;;;;;;10.82;9.70;;;;;;;15.48;100.00;101274.56;5025493;28;20068;-64
2023/08/14 05:45:45;;;;;;;8.93;8.00;;;;;;;15.51;100.00;101278.97;5027087;28;20034;-65
2023/08/14 05:48:11;;;;;;;9.20;8.20;;;;;;;15.54;100.00;101281.63;5027562;28;20051;-64
2023/08/14 05:50:38;;;;;;;11.32;8.75;;;;;;;15.57;100.00;101282.56;5027904;28;20025;-65
2023/08/14 05:53:04;;;;;;;13.18;8.60;;;;;;;15.60;100.00;101289.56;5038538;28;20068;-64
2023/08/14 05:55:32;;;;;;;11.35;8.70;;;;;;;15.62;100.00;101280.03;5041148;28;20060;-64
2023/08/14 05:57:57;;;;;;;11.25;8.68;;;;;;;15.66;100.00;101291.41;5040784;28;20492;-65
2023/08/14 06:00:24;;;;;;;10.70;8.38;;;;;;;15.67;100.00;101303.63;5030576;28;20021;-64
2023/08/14 06:02:50;;;;;;;8.93;7.88;;;;;;;15.69;100.00;101307.13;5037676;28;20484;-64
2023/08/14 06:05:15;;;;;;;10.07;8.13;;;;;;;15.70;100.00;101303.69;5044388;28;20044;-65
2023/08/14 06:07:41;;;;;;;9.43;8.52;;;;;;;15.72;100.00;101302.00;5047254;28;20087;-65
2023/08/14 06:10:06;;;;;;;9.52;8.63;;;;;;;15.74;100.00;101310.72;5034661;28;20036;-64
2023/08/14 06:12:32;;;;;;;12.23;8.30;;;;;;;15.73;100.00;101306.34;5043548;28;20032;-64
2023/08/14 06:14:58;;;;;;;10.27;7.75;;;;;;;15.75;100.00;101317.72;5033603;28;20029;-64
2023/08/14 06:17:24;;;;;;;9.60;8.60;;;;;;;15.74;100.00;101315.94;5029900;28;20044;-65
2023/08/14 06:19:49;;;;;;;9.88;8.45;;;;;;;15.74;100.00;101310.72;5037065;28;20033;-65
2023/08/14 06:22:16;;;;;;;9.65;8.75;;;;;;;15.78;100.00;101306.41;5034847;28;20040;-64
2023/08/14 06:24:41;;;;;;;10.75;8.70;;;;;;;15.81;100.00;101302.13;5037283;28;20033;-65
2023/08/14 06:27:06;;;;;;;11.68;10.07;;;;;;;15.84;100.00;101298.69;5040739;28;20287;-65
2023/08/14 06:29:31;;;;;;;10.30;9.20;;;;;;;15.87;100.00;101297.84;5046481;28;20389;-65
2023/08/14 06:31:57;;;;;;;11.05;9.95;;;;;;;15.92;100.00;101294.47;5038688;28;20029;-65
2023/08/14 06:34:23;;;;;;;13.85;11.02;;;;;;;16.03;100.00;101283.38;5038570;28;20029;-65
2023/08/14 06:36:48;;;;;;;12.05;10.85;;;;;;;16.23;100.00;101278.44;5042474;28;20025;-65
2023/08/14 06:39:13;;;;;;;11.13;9.65;;;;;;;16.50;100.00;101289.28;5044835;28;20532;-65
2023/08/14 06:41:38;;;;;;;10.90;9.70;;;;;;;16.73;100.00;101297.47;5036747;28;20021;-64
2023/08/14 06:44:07;;;;;;;11.45;9.02;;;;;;;17.03;100.00;101290.00;5039233;28;20359;-65
2023/08/14 06:46:32;;;;;;;11.40;9.35;;;;;;;17.26;100.00;101281.56;5037037;28;20028;-65
2023/08/14 06:48:57;;;;;;;13.60;8.63;;;;;;;17.39;100.00;101288.72;5036641;28;20029;-65
2023/08/14 06:51:22;;;;;;;9.80;8.48;;;;;;;17.44;100.00;101283.50;5031301;28;20032;-65
2023/08/14 06:53:48;;;;;;;10.77;7.78;;;;;;;17.47;100.00;101278.28;5029631;28;20393;-65
2023/08/14 06:56:13;;;;;;;9.40;7.72;;;;;;;17.50;100.00;101294.03;5026818;28;20023;-65
2023/08/14 06:58:38;;;;;;;10.50;7.75;;;;;;;17.56;100.00;101292.38;5038568;28;20032;-65
2023/08/14 07:01:04;;;;;;;10.23;6.95;;;;;;;17.72;100.00;101283.78;5032025;28;20018;-65
2023/08/14 07:03:29;;;;;;;8.98;7.13;;;;;;;17.94;100.00;101278.72;5042404;28;20013;-66
2023/08/14 07:05:54;;;;;;;10.40;7.68;;;;;;;18.10;100.00;101290.22;5031810;28;20021;-65
2023/08/14 07:08:20;;;;;;;9.45;6.70;;;;;;;18.37;100.00;101290.44;5029084;28;20043;-65
2023/08/14 07:10:46;;;;;;;9.90;7.18;;;;;;;18.64;100.00;101286.22;5037188;28;20458;-65
2023/08/14 07:13:11;;;;;;;7.75;7.00;;;;;;;18.86;100.00;101290.69;5033232;28;20013;-65
2023/08/14 07:15:37;;;;;;;12.00;7.03;;;;;;;19.01;100.00;101289.88;5040844;28;20032;-65
2023/08/14 07:18:02;;;;;;;8.05;6.45;;;;;;;19.08;100.00;101296.91;5043709;28;20025;-65
2023/08/14 07:20:27;;;;;;;9.20;5.75;;;;;;;19.04;100.00;101289.91;5041206;28;20017;-65
2023/08/14 07:22:54;;;;;;;8.52;5.38;;;;;;;18.97;100.00;101283.75;5039423;28;20076;-65
2023/08/14 07:25:19;;;;;;;8.73;6.20;;;;;;;18.82;100.00;101276.66;5032526;28;20069;-65
2023/08/14 07:27:45;;;;;;;9.25;5.53;;;;;;;18.75;100.00;101282.75;5045799;28;20017;-65
2023/08/14 07:30:10;;;;;;;12.27;5.47;;;;;;;18.70;100.00;101281.00;5037836;28;20017;-66
2023/08/14 07:32:35;;;;;;;8.05;5.85;;;;;;;18.73;100.00;101293.25;5043928;28;20037;-65
2023/08/14 07:35:01;;;;;;;11.10;6.10;;;;;;;18.82;100.00;101301.19;5037450;28;20108;-65
2023/08/14 07:37:26;;;;;;;7.30;5.20;;;;;;;18.90;100.00;101308.22;5029991;28;20245;-65
2023/08/14 07:39:51;;;;;;;7.72;5.43;;;;;;;18.90;100.00;101314.34;5031409;28;20397;-65
2023/08/14 07:42:17;;;;;;;7.90;5.05;;;;;;;18.86;100.00;101317.84;5030024;28;20044;-65
2023/08/14 07:44:42;;;;;;;7.78;5.22;;;;;;;18.95;100.00;101315.25;5032708;28;20053;-65
2023/08/14 07:47:07;;;;;;;7.25;5.20;;;;;;;19.03;100.00;101322.28;5027795;28;20108;-64
2023/08/14 07:49:35;;;;;;;7.00;4.13;;;;;;;19.29;100.00;101318.91;5033715;28;20021;-65
2023/08/14 07:52:00;;;;;;;5.57;4.40;;;;;;;19.72;100.00;101315.50;5038244;28;20043;-64
2023/08/14 07:54:26;;;;;;;10.35;4.43;;;;;;;20.15;100.00;101309.41;5031359;28;20378;-64
2023/08/14 07:56:52;;;;;;;7.35;4.40;;;;;;;20.53;100.00;101304.09;5028108;28;20056;-65
2023/08/14 07:59:18;;;;;;;4.57;3.00;;;;;;;20.95;100.00;101305.75;5028274;28;20450;-65
2023/08/14 08:01:43;;;;;;;7.00;3.33;;;;;;;21.29;100.00;101312.59;5028002;28;20029;-65
2023/08/14 08:04:09;;;;;;;8.38;3.30;;;;;;;21.73;100.00;101307.06;5037216;28;20029;-65
2023/08/14 08:06:34;;;;;;;7.72;3.00;;;;;;;22.24;100.00;101306.66;5037617;28;20023;-65
2023/08/14 08:08:59;;;;;;;7.70;3.20;;;;;;;22.63;100.00;101318.63;5027540;28;20048;-65
2023/08/14 08:11:24;;;;;;;7.45;2.95;;;;;;;22.95;100.00;101317.38;5027669;28;20029;-65
2023/08/14 08:13:50;;;;;;;10.60;2.97;;;;;;;23.20;97.07;101314.41;5028090;28;20104;-65
2023/08/14 08:16:15;;;;;;;6.15;2.72;;;;;;;23.26;92.45;101314.31;5027915;28;20268;-66
2023/08/14 08:18:40;;;;;;;3.42;2.28;;;;;;;23.41;95.34;101316.75;5028183;28;20031;-66
2023/08/14 08:21:06;;;;;;;8.20;2.38;;;;;;;23.62;96.73;101310.31;5032643;28;20027;-66
2023/08/14 08:23:31;;;;;;;5.57;2.40;;;;;;;23.85;91.00;101302.00;5042372;28;20414;-66
2023/08/14 08:25:56;;;;;;;4.97;2.60;;;;;;;24.12;89.42;101306.88;5027645;28;20050;-65
2023/08/14 08:28:21;;;;;;;4.60;2.13;;;;;;;24.31;88.74;101298.59;5028074;28;20099;-67
2023/08/14 08:30:47;;;;;;;5.75;2.05;;;;;;;24.52;86.84;101291.19;5032293;28;20039;-66
2023/08/14 08:33:12;;;;;;;5.15;2.20;;;;;;;24.60;82.42;101289.22;5033327;28;20029;-65
2023/08/14 08:35:37;;;;;;;5.55;1.88;;;;;;;24.70;84.07;101295.22;5041064;28;20760;-65
2023/08/14 08:38:03;;;;;;;7.70;2.17;;;;;;;24.86;85.10;101295.75;5043834;28;20025;-65
2023/08/14 08:40:29;;;;;;;3.72;1.60;;;;;;;24.92;86.87;101293.03;5025746;28;20539;-65
2023/08/14 08:42:56;;;;;;;3.90;1.73;;;;;;;24.98;82.93;101288.50;5033510;28;20040;-65
2023/08/14 08:45:27;;;;;;;3.33;1.50;;;;;;;25.12;84.60;101286.41;5035116;28;20017;-65
2023/08/14 08:47:54;;;;;;;4.30;1.70;;;;;;;25.26;83.03;101287.88;5026652;28;20108;-65
2023/08/14 08:50:20;;;;;;;5.18;1.77;;;;;;;25.36;80.84;101289.44;5042122;28;20518;-65
2023/08/14 08:52:45;;;;;;;4.55;1.63;;;;;;;25.39;79.90;101297.31;5030023;28;20034;-65
2023/08/14 08:55:11;;;;;;;4.18;1.98;;;;;;;25.51;78.83;101292.59;5026486;28;20033;-65
2023/08/14 08:57:38;;;;;;;6.82;2.03;;;;;;;25.51;75.74;101282.00;5026070;28;20438;-66
2023/08/14 09:00:05;;;;;;;4.10;2.17;;;;;;;25.57;74.65;101276.53;5026928;28;20021;-65
2023/08/14 09:02:30;;;;;;;5.43;1.30;;;;;;;25.65;75.94;101282.56;5026923;28;20401;-65
2023/08/14 09:04:56;;;;;;;3.40;1.70;;;;;;;25.78;74.10;101284.91;5025883;28;20073;-65
2023/08/14 09:07:21;;;;;;;3.40;1.33;;;;;;;25.82;72.97;101283.94;5026667;28;20033;-65
2023/08/14 09:09:46;;;;;;;4.15;1.35;;;;;;;25.80;75.06;101277.78;5026213;28;20033;-64
2023/08/14 09:12:12;;;;;;;3.20;1.58;;;;;;;25.94;74.59;101274.75;5026436;28;20485;-65
2023/08/14 09:14:43;;;;;;;3.95;1.65;;;;;;;25.92;74.29;101275.75;5026272;28;20033;-65
2023/08/14 09:17:10;;;;;;;3.25;1.20;;;;;;;25.98;71.10;101276.44;5026319;28;20374;-65
2023/08/14 09:19:37;;;;;;;2.75;1.77;;;;;;;25.99;73.00;101279.97;5036367;28;20021;-66
2023/08/14 09:22:03;;;;;;;3.42;1.40;;;;;;;26.06;71.94;101273.59;5036487;28;20100;-65
2023/08/14 09:24:33;;;;;;;2.17;1.17;;;;;;;26.20;73.98;101270.56;5037390;28;20108;-65
2023/08/14 09:26:59;;;;;;;;;;;;;;;26.11;69.92;101268.16;5044546;28;20088;-65
2023/08/14 09:29:24;;;;;;;3.42;1.40;;;;;;;26.05;68.67;101278.94;5034355;28;19948;-65
2023/08/14 09:31:51;;;;;;;2.22;1.30;;;;;;;26.10;71.44;101280.53;5031646;28;20033;-65
2023/08/14 09:34:18;;;;;;;4.15;1.38;;;;;;;26.17;68.20;101285.69;5042857;28;20112;-65
2023/08/14 09:36:44;;;;;;;4.85;1.63;;;;;;;26.18;70.79;101290.97;5041678;28;20119;-65
2023/08/14 09:39:10;;;;;;;5.97;1.50;;;;;;;26.20;67.92;101290.94;5036963;28;20025;-65
2023/08/14 09:41:37;;;;;;;2.33;1.20;;;;;;;26.27;67.66;101311.09;5035585;28;20140;-65
2023/08/14 09:44:03;;;;;;;3.08;1.13;;;;;;;25.95;63.27;101310.16;5049834;28;20074;-65
2023/08/14 09:46:28;;;;;;;4.22;1.02;;;;;;;25.60;62.66;101307.44;5034252;28;20049;-65
2023/08/14 09:48:55;;;;;;;4.78;1.70;;;;;;;25.32;62.44;101298.34;5032064;28;20095;-65
2023/08/14 09:51:20;;;;;;;3.47;1.00;;;;;;;25.46;66.10;101294.50;5046862;28;20051;-64
2023/08/14 09:53:52;;;;;;;3.58;1.52;;;;;;;25.47;64.03;101301.56;5051967;28;20129;-65
2023/08/14 09:56:19;;;;;;;3.67;1.23;;;;;;;25.73;66.70;101292.13;5035152;28;20083;-64
2023/08/14 09:58:45;;;;;;;4.72;1.52;;;;;;;25.79;64.28;101286.66;5037933;28;20082;-64
2023/08/14 10:01:12;;;;;;;3.22;1.20;;;;;;;25.90;64.09;101279.28;5047019;28;20108;-64
2023/08/14 10:03:41;;;;;;;2.60;1.30;;;;;;;25.98;63.37;101275.56;5041136;28;20032;-65
2023/08/14 10:06:07;;;;;;;2.63;1.15;;;;;;;25.85;60.90;101273.22;5040277;28;20462;-65
2023/08/14 10:08:34;;;;;;;4.03;1.67;;;;;;;25.99;61.57;101272.91;5040083;28;20404;-65
2023/08/14 10:11:03;;;;;;;4.60;1.58;;;;;;;25.93;59.01;101262.41;5033548;28;20041;-65
2023/08/14 10:13:30;;;;;;;2.38;1.30;;;;;;;25.91;60.70;101269.56;5037925;28;21183;-65
2023/08/14 10:15:58;;;;;;;3.55;1.45;;;;;;;26.13;63.04;101248.63;5042776;28;20843;-66
2023/08/14 10:18:26;;;;;;;2.40;0.90;;;;;;;26.32;64.45;101249.91;5034179;28;20033;-65
2023/08/14 10:20:54;;;;;;;5.05;1.33;;;;;;;26.46;60.10;101250.38;5031820;28;20022;-65
2023/08/14 10:23:21;;;;;;;3.10;1.30;;;;;;;26.47;58.51;101248.63;5031105;28;20048;-65
2023/08/14 10:25:50;;;;;;;4.38;1.10;;;;;;;26.60;60.88;101247.34;5033806;28;20056;-65
2023/08/14 10:28:18;;;;;;;2.03;1.00;;;;;;;26.59;57.45;101242.94;5036744;28;20043;-65
2023/08/14 10:30:44;;;;;;;3.83;1.27;;;;;;;26.63;59.33;101235.75;5033950;28;20021;-65
2023/08/14 10:33:11;;;;;;;4.30;1.52;;;;;;;26.58;59.44;101233.25;5036078;28;20021;-65
2023/08/14 10:35:57;;;;;;;5.10;1.30;;;;;;;26.71;59.09;101222.25;5042736;28;20094;-65
2023/08/14 10:38:42;;;;;;;4.32;1.30;;;;;;;26.69;58.44;101224.06;5032284;28;20066;-65
2023/08/14 10:41:08;;;;;;;4.38;1.20;;;;;;;26.75;59.51;101218.56;5045136;28;20025;-65
2023/08/14 10:43:33;;;;;;;5.22;1.20;;;;;;;26.77;59.22;101219.38;5029174;28;20522;-65
2023/08/14 10:45:59;;;;;;;3.08;1.20;;;;;;;26.91;59.97;101210.97;5028875;28;20182;-65
2023/08/14 10:48:24;;;;;;;4.03;1.45;;;;;;;26.89;57.95;101206.66;5034143;28;20029;-65
2023/08/14 10:50:59;;;;;;;4.88;1.30;;;;;;;27.02;60.25;101215.13;5038393;28;20059;-67
2023/08/14 10:53:25;;;;;;;4.25;1.45;;;;;;;26.94;56.83;101212.69;5045429;28;20083;-66
2023/08/14 11:19:46;;;;;;;4.95;1.25;;;;;;;26.41;56.19;101230.22;5045994;28;20436;-65
2023/08/14 11:22:11;;;;;;;3.17;1.40;;;;;;;26.23;56.12;101227.09;5050491;28;20041;-64
2023/08/14 11:24:36;;;;;;;5.15;1.40;;;;;;;26.36;57.09;101222.34;5043058;28;20087;-65
2023/08/14 11:27:02;;;;;;;5.07;1.77;;;;;;;26.48;60.40;101226.47;5037041;28;20468;-65
2023/08/14 11:29:28;;;;;;;2.20;1.10;;;;;;;26.65;59.99;101217.97;5038629;28;20028;-65
2023/08/14 11:31:54;;;;;;;3.13;1.10;;;;;;;26.78;60.32;101215.84;5038617;28;20047;-64
2023/08/14 11:34:20;;;;;;;4.00;1.23;;;;;;;26.85;57.54;101214.72;5042256;28;20037;-65
2023/08/14 11:37:11;;;;;;;3.58;1.42;;;;;;;26.93;57.17;101213.63;5044463;28;20028;-64